Time,TemperatureF,DewpointF,PressureIn,WindDirection,WindDirectionDegrees,WindSpeedMPH,WindSpeedGustMPH,Humidity,HourlyPrecipIn,Conditions,Clouds,dailyrainin,SoftwareType,DateUTC
2013-02-28 00:00:00,36.3,33.4,29.73,NNE,22,0.0,0.0,89,0.00,,---,0.00,VWS V14.00,2013-02-28 05:00:00,
2013-02-28 00:05:00,36.1,33.2,29.72,NNE,22,0.0,0.0,89,0.00,,---,0.00,VWS V14.00,2013-02-28 05:05:00,
2013-02-28 00:10:00,35.7,33.1,29.72,NNE,22,0.0,0.0,90,0.00,,---,0.00,VWS V14.00,2013-02-28 05:10:00,
2013-02-28 00:15:00,35.7,33.1,29.72,NNE,22,0.0,0.0,90,0.00,,---,0.00,VWS V14.00,2013-02-28 05:15:00,
2013-02-28 00:20:00,35.4,32.8,29.72,NNE,22,0.0,0.0,90,0.00,,---,0.00,VWS V14.00,2013-02-28 05:20:00,
2013-02-28 00:25:00,35.4,32.8,29.72,NNE,22,0.0,0.0,90,0.00,,---,0.00,VWS V14.00,2013-02-28 05:25:00,
2013-02-28 00:30:00,35.2,32.8,29.72,NNE,22,0.0,0.0,91,0.00,,---,0.00,VWS V14.00,2013-02-28 05:30:00,
2013-02-28 00:35:00,35.0,32.6,29.72,NNE,22,0.0,0.0,91,0.00,,---,0.00,VWS V14.00,2013-02-28 05:35:00,
2013-02-28 00:40:00,34.8,32.5,29.72,NNE,22,0.0,0.0,91,0.00,,---,0.00,VWS V14.00,2013-02-28 05:40:00,
2013-02-28 00:45:00,34.8,32.7,29.72,NNE,22,0.0,0.0,92,0.00,,---,0.00,VWS V14.00,2013-02-28 05:45:00,
2013-02-28 00:50:00,34.7,32.6,29.72,NNE,22,0.0,0.0,92,0.00,,---,0.00,VWS V14.00,2013-02-28 05:50:00,
2013-02-28 00:55:00,34.5,32.4,29.72,NNE,22,0.0,0.0,92,0.00,,---,0.00,VWS V14.00,2013-02-28 05:55:00,
2013-02-28 01:00:00,34.3,32.2,29.72,NNE,22,0.0,0.0,92,0.00,,---,0.00,VWS V14.00,2013-02-28 06:00:00,
2013-02-28 01:05:00,34.3,32.2,29.72,NNE,22,0.0,0.0,92,0.00,,---,0.00,VWS V14.00,2013-02-28 06:05:00,
2013-02-28 01:10:00,34.1,32.0,29.72,NNE,22,0.0,0.0,92,0.00,,---,0.00,VWS V14.00,2013-02-28 06:10:00,
2013-02-28 01:15:00,33.9,32.1,29.72,NNE,22,0.0,0.0,93,0.00,,---,0.00,VWS V14.00,2013-02-28 06:15:00,
2013-02-28 01:20:00,33.9,32.1,29.72,NNE,22,0.0,0.0,93,0.00,,---,0.00,VWS V14.00,2013-02-28 06:20:00,
2013-02-28 01:25:00,33.6,31.8,29.72,NNE,22,0.0,0.0,93,0.00,,---,0.00,VWS V14.00,2013-02-28 06:25:00,
2013-02-28 01:30:00,33.6,31.8,29.72,NNE,22,0.0,0.0,93,0.00,,---,0.00,VWS V14.00,2013-02-28 06:30:00,
2013-02-28 01:35:00,33.4,31.6,29.71,NNE,22,0.0,0.0,93,0.00,,---,0.00,VWS V14.00,2013-02-28 06:35:00,
2013-02-28 01:40:00,33.0,31.2,29.71,NNE,22,0.0,0.0,93,0.00,,---,0.00,VWS V14.00,2013-02-28 06:40:00,
2013-02-28 01:45:00,32.9,31.1,29.71,NNE,22,0.0,0.0,93,0.00,,---,0.00,VWS V14.00,2013-02-28 06:45:00,
2013-02-28 01:50:00,32.7,30.9,29.71,NNE,22,0.0,0.0,93,0.00,,---,0.00,VWS V14.00,2013-02-28 06:50:00,
2013-02-28 01:55:00,32.7,31.2,29.71,NNE,22,0.0,0.0,94,0.00,,---,0.00,VWS V14.00,2013-02-28 06:55:00,
2013-02-28 02:00:00,32.5,31.0,29.71,NNE,22,0.0,0.0,94,0.00,,---,0.00,VWS V14.00,2013-02-28 07:00:00,
2013-02-28 02:05:00,32.3,30.8,29.71,NNE,22,0.0,0.0,94,0.00,,---,0.00,VWS V14.00,2013-02-28 07:05:00,
2013-02-28 02:10:00,32.3,30.8,29.71,NNE,22,0.0,0.0,94,0.00,,---,0.00,VWS V14.00,2013-02-28 07:10:00,
2013-02-28 02:15:00,32.1,30.6,29.70,NNE,22,0.0,0.0,94,0.00,,---,0.00,VWS V14.00,2013-02-28 07:15:00,
2013-02-28 02:20:00,32.1,30.8,29.71,NNE,22,0.0,0.0,95,0.00,,---,0.00,VWS V14.00,2013-02-28 07:20:00,
2013-02-28 02:25:00,32.1,30.8,29.70,NNE,22,0.0,0.0,95,0.00,,---,0.00,VWS V14.00,2013-02-28 07:25:00,
2013-02-28 02:30:00,32.1,30.8,29.70,NNE,22,0.0,0.0,95,0.00,,---,0.00,VWS V14.00,2013-02-28 07:30:00,
2013-02-28 02:35:00,32.3,31.0,29.70,NNE,22,0.0,0.0,95,0.00,,---,0.00,VWS V14.00,2013-02-28 07:35:00,
2013-02-28 02:41:00,32.1,30.8,29.70,NNE,22,0.0,0.0,95,0.00,,---,0.00,VWS V14.00,2013-02-28 07:41:00,
2013-02-28 02:46:00,32.3,31.0,29.70,NNE,22,0.0,0.0,95,0.00,,---,0.00,VWS V14.00,2013-02-28 07:46:00,
2013-02-28 02:51:00,32.3,31.0,29.70,NNE,22,0.0,0.0,95,0.00,,---,0.00,VWS V14.00,2013-02-28 07:51:00,
2013-02-28 02:56:00,32.3,31.0,29.70,NNE,22,0.0,0.0,95,0.00,,---,0.00,VWS V14.00,2013-02-28 07:56:00,
2013-02-28 03:01:00,32.3,31.0,29.70,NNE,22,0.0,0.0,95,0.00,,---,0.00,VWS V14.00,2013-02-28 08:01:00,
2013-02-28 03:06:00,32.3,31.0,29.69,NNE,22,0.0,0.0,95,0.00,,---,0.00,VWS V14.00,2013-02-28 08:06:00,
2013-02-28 03:11:00,32.1,30.8,29.69,NNE,22,0.0,0.0,95,0.00,,---,0.00,VWS V14.00,2013-02-28 08:11:00,
2013-02-28 03:16:00,31.8,30.5,29.69,NNE,22,0.0,0.0,95,0.00,,---,0.00,VWS V14.00,2013-02-28 08:16:00,
2013-02-28 03:21:00,31.8,30.5,29.69,NNE,22,0.0,0.0,95,0.00,,---,0.00,VWS V14.00,2013-02-28 08:21:00,
2013-02-28 03:26:00,31.8,30.5,29.69,NNE,22,0.0,0.0,95,0.00,,---,0.00,VWS V14.00,2013-02-28 08:26:00,
2013-02-28 03:31:00,32.1,30.8,29.69,NNE,22,0.0,0.0,95,0.00,,---,0.00,VWS V14.00,2013-02-28 08:31:00,
2013-02-28 03:36:00,32.1,30.8,29.69,NNE,22,0.0,0.0,95,0.00,,---,0.00,VWS V14.00,2013-02-28 08:36:00,
2013-02-28 03:41:00,32.3,31.0,29.69,NNE,22,0.0,0.0,95,0.00,,---,0.00,VWS V14.00,2013-02-28 08:41:00,
2013-02-28 03:46:00,32.5,31.2,29.69,NNE,22,0.0,0.0,95,0.00,,---,0.00,VWS V14.00,2013-02-28 08:46:00,
2013-02-28 03:51:00,32.5,31.2,29.69,NNE,22,0.0,0.0,95,0.00,,---,0.00,VWS V14.00,2013-02-28 08:51:00,
2013-02-28 03:56:00,32.7,31.4,29.69,NNE,22,0.0,0.0,95,0.00,,---,0.00,VWS V14.00,2013-02-28 08:56:00,
2013-02-28 04:01:00,32.7,31.4,29.69,NNE,22,0.0,0.0,95,0.00,,---,0.00,VWS V14.00,2013-02-28 09:01:00,
2013-02-28 04:06:00,32.9,31.4,29.69,NNE,22,0.0,0.0,94,0.00,,---,0.00,VWS V14.00,2013-02-28 09:06:00,
2013-02-28 04:11:00,33.0,31.5,29.69,NNE,22,0.0,0.0,94,0.00,,---,0.00,VWS V14.00,2013-02-28 09:11:00,
2013-02-28 04:16:00,33.0,31.5,29.69,NNE,22,0.0,0.0,94,0.00,,---,0.00,VWS V14.00,2013-02-28 09:16:00,
2013-02-28 04:21:00,33.0,31.2,29.69,NNE,22,0.0,0.0,93,0.00,,---,0.00,VWS V14.00,2013-02-28 09:21:00,
2013-02-28 04:26:00,33.0,31.2,29.69,NNE,22,0.0,0.0,93,0.00,,---,0.00,VWS V14.00,2013-02-28 09:26:00,
2013-02-28 04:31:00,32.9,31.1,29.69,NNE,22,0.0,0.0,93,0.00,,---,0.00,VWS V14.00,2013-02-28 09:31:00,
2013-02-28 04:36:00,32.5,30.7,29.69,NNE,22,0.0,0.0,93,0.00,,---,0.00,VWS V14.00,2013-02-28 09:36:00,
2013-02-28 04:41:00,32.3,30.5,29.69,NNE,22,0.0,0.0,93,0.00,,---,0.00,VWS V14.00,2013-02-28 09:41:00,
2013-02-28 04:46:00,32.1,30.3,29.69,NNE,22,0.0,0.0,93,0.00,,---,0.00,VWS V14.00,2013-02-28 09:46:00,
2013-02-28 04:51:00,31.8,30.0,29.69,NNE,22,0.0,0.0,93,0.00,,---,0.00,VWS V14.00,2013-02-28 09:51:00,
2013-02-28 04:56:00,31.8,30.0,29.69,NNE,22,0.0,0.0,93,0.00,,---,0.00,VWS V14.00,2013-02-28 09:56:00,
2013-02-28 05:01:00,31.6,29.8,29.69,NNE,22,0.0,0.0,93,0.00,,---,0.00,VWS V14.00,2013-02-28 10:01:00,
2013-02-28 05:06:00,31.6,29.8,29.69,NNE,22,0.0,0.0,93,0.00,,---,0.00,VWS V14.00,2013-02-28 10:06:00,
2013-02-28 05:11:00,31.6,29.8,29.69,NNE,22,0.0,0.0,93,0.00,,---,0.00,VWS V14.00,2013-02-28 10:11:00,
2013-02-28 05:16:00,31.6,29.8,29.70,NNE,22,0.0,0.0,93,0.00,,---,0.00,VWS V14.00,2013-02-28 10:16:00,
2013-02-28 05:21:00,31.8,30.3,29.69,NNE,22,0.0,0.0,94,0.00,,---,0.00,VWS V14.00,2013-02-28 10:21:00,
2013-02-28 05:26:00,31.8,30.3,29.69,NNE,22,0.0,0.0,94,0.00,,---,0.00,VWS V14.00,2013-02-28 10:26:00,
2013-02-28 05:31:00,32.3,30.8,29.69,NNE,22,0.0,0.0,94,0.00,,---,0.00,VWS V14.00,2013-02-28 10:31:00,
2013-02-28 05:36:00,32.7,30.9,29.69,NNE,22,0.0,0.0,93,0.00,,---,0.00,VWS V14.00,2013-02-28 10:36:00,
2013-02-28 05:41:00,33.0,31.2,29.70,NNE,22,0.0,0.0,93,0.00,,---,0.00,VWS V14.00,2013-02-28 10:41:00,
2013-02-28 05:46:00,33.2,31.1,29.71,NNE,22,0.0,0.0,92,0.00,,---,0.00,VWS V14.00,2013-02-28 10:46:00,
2013-02-28 05:51:00,33.6,31.5,29.71,North,0,0.0,0.0,92,0.00,,---,0.00,VWS V14.00,2013-02-28 10:51:00,
2013-02-28 05:56:00,33.6,31.5,29.71,North,0,0.0,0.0,92,0.00,,---,0.00,VWS V14.00,2013-02-28 10:56:00,
2013-02-28 06:01:00,33.6,31.5,29.71,North,0,0.0,0.0,92,0.00,,---,0.00,VWS V14.00,2013-02-28 11:01:00,
2013-02-28 06:06:00,33.4,31.1,29.71,North,0,0.0,0.0,91,0.00,,---,0.00,VWS V14.00,2013-02-28 11:06:00,
2013-02-28 06:11:00,33.2,30.9,29.71,North,0,0.0,0.0,91,0.00,,---,0.00,VWS V14.00,2013-02-28 11:11:00,
2013-02-28 06:16:00,33.0,30.7,29.71,North,0,0.0,0.0,91,0.00,,---,0.00,VWS V14.00,2013-02-28 11:16:00,
2013-02-28 06:21:00,32.9,30.6,29.71,North,0,0.0,0.0,91,0.00,,---,0.00,VWS V14.00,2013-02-28 11:21:00,
2013-02-28 06:26:00,32.7,30.4,29.71,North,0,0.0,0.0,91,0.00,,---,0.00,VWS V14.00,2013-02-28 11:26:00,
2013-02-28 06:32:00,32.5,30.2,29.71,North,0,0.0,0.0,91,0.00,,---,0.00,VWS V14.00,2013-02-28 11:32:00,
2013-02-28 06:37:00,32.5,30.2,29.71,North,0,0.0,0.0,91,0.00,,---,0.00,VWS V14.00,2013-02-28 11:37:00,
2013-02-28 06:42:00,32.5,30.2,29.71,North,0,0.0,0.0,91,0.00,,---,0.00,VWS V14.00,2013-02-28 11:42:00,
2013-02-28 06:47:00,32.5,30.2,29.71,North,0,0.0,0.0,91,0.00,,---,0.00,VWS V14.00,2013-02-28 11:47:00,
2013-02-28 06:52:00,32.5,30.2,29.71,North,0,0.0,0.0,91,0.00,,---,0.00,VWS V14.00,2013-02-28 11:52:00,
2013-02-28 06:57:00,32.5,30.2,29.71,North,0,0.0,0.0,91,0.00,,---,0.00,VWS V14.00,2013-02-28 11:57:00,
2013-02-28 07:02:00,32.3,29.7,29.71,North,0,0.0,0.0,90,0.00,,---,0.00,VWS V14.00,2013-02-28 12:02:00,
2013-02-28 07:07:00,32.3,29.7,29.71,North,0,0.0,0.0,90,0.00,,---,0.00,VWS V14.00,2013-02-28 12:07:00,
2013-02-28 07:12:00,32.1,29.5,29.71,North,0,0.8,0.8,90,0.00,,---,0.00,VWS V14.00,2013-02-28 12:12:00,
2013-02-28 07:17:00,32.1,29.5,29.71,North,0,0.0,0.8,90,0.00,,---,0.00,VWS V14.00,2013-02-28 12:17:00,
2013-02-28 07:22:00,32.3,29.4,29.72,North,0,0.0,0.0,89,0.00,,---,0.00,VWS V14.00,2013-02-28 12:22:00,
2013-02-28 07:27:00,32.7,29.5,29.72,North,0,0.0,0.0,88,0.00,,---,0.00,VWS V14.00,2013-02-28 12:27:00,
2013-02-28 07:32:00,32.9,29.7,29.72,North,0,0.0,0.0,88,0.00,,---,0.00,VWS V14.00,2013-02-28 12:32:00,
2013-02-28 07:37:00,33.0,29.6,29.72,North,0,0.0,0.0,87,0.00,,---,0.00,VWS V14.00,2013-02-28 12:37:00,
2013-02-28 07:42:00,33.4,30.0,29.72,North,0,1.3,1.3,87,0.00,,---,0.00,VWS V14.00,2013-02-28 12:42:00,
2013-02-28 07:47:00,33.6,29.9,29.72,North,0,3.1,3.1,86,0.00,,---,0.00,VWS V14.00,2013-02-28 12:47:00,
2013-02-28 07:52:00,33.9,30.2,29.72,North,0,1.5,1.5,86,0.00,,---,0.00,VWS V14.00,2013-02-28 12:52:00,
2013-02-28 07:57:00,34.1,30.4,29.73,North,0,1.1,1.5,86,0.00,,---,0.00,VWS V14.00,2013-02-28 12:57:00,
2013-02-28 08:02:00,34.3,30.3,29.73,North,0,0.0,0.0,85,0.00,,---,0.00,VWS V14.00,2013-02-28 13:02:00,
2013-02-28 08:07:00,34.3,30.3,29.73,North,0,0.0,0.0,85,0.00,,---,0.00,VWS V14.00,2013-02-28 13:07:00,
2013-02-28 08:12:00,34.5,30.5,29.73,North,0,0.0,0.0,85,0.00,,---,0.00,VWS V14.00,2013-02-28 13:12:00,
2013-02-28 08:17:00,34.8,30.5,29.73,North,0,0.6,0.6,84,0.00,,---,0.00,VWS V14.00,2013-02-28 13:17:00,
2013-02-28 08:22:00,35.4,31.1,29.73,North,0,0.0,0.0,84,0.00,,---,0.00,VWS V14.00,2013-02-28 13:22:00,
2013-02-28 08:27:00,36.3,31.6,29.74,North,0,0.0,0.0,83,0.00,,---,0.00,VWS V14.00,2013-02-28 13:27:00,
2013-02-28 08:32:00,36.6,31.6,29.74,NNE,22,3.5,3.5,82,0.00,,---,0.00,VWS V14.00,2013-02-28 13:32:00,
2013-02-28 08:37:00,37.2,31.9,29.74,NE,45,0.0,3.5,81,0.00,,---,0.00,VWS V14.00,2013-02-28 13:37:00,
2013-02-28 08:42:00,37.5,31.9,29.75,NE,45,0.0,1.3,80,0.00,,---,0.00,VWS V14.00,2013-02-28 13:42:00,
2013-02-28 08:48:00,37.7,31.8,29.75,NE,45,0.8,1.3,79,0.00,,---,0.00,VWS V14.00,2013-02-28 13:48:00,
2013-02-28 08:53:00,37.9,32.0,29.75,NE,45,3.5,3.5,79,0.00,,---,0.00,VWS V14.00,2013-02-28 13:53:00,
2013-02-28 08:58:00,38.1,31.9,29.75,NE,45,0.0,3.5,78,0.00,,---,0.00,VWS V14.00,2013-02-28 13:58:00,
2013-02-28 09:03:00,38.3,32.0,29.74,NE,45,0.0,0.0,78,0.00,,---,0.00,VWS V14.00,2013-02-28 14:03:00,
2013-02-28 09:08:00,38.4,32.2,29.74,NE,45,0.0,0.0,78,0.00,,---,0.00,VWS V14.00,2013-02-28 14:08:00,
2013-02-28 09:13:00,39.0,32.7,29.75,NE,45,0.0,0.0,78,0.00,,---,0.00,VWS V14.00,2013-02-28 14:13:00,
2013-02-28 09:18:00,39.5,33.2,29.75,NNE,22,0.0,0.0,78,0.00,,---,0.00,VWS V14.00,2013-02-28 14:18:00,
2013-02-28 09:23:00,39.9,33.3,29.75,NNE,22,0.0,1.1,77,0.00,,---,0.00,VWS V14.00,2013-02-28 14:23:00,
2013-02-28 09:28:00,40.8,33.8,29.75,NNE,22,0.0,1.1,76,0.00,,---,0.00,VWS V14.00,2013-02-28 14:28:00,
2013-02-28 09:33:00,40.8,33.5,29.76,WNW,292,0.0,2.6,75,0.00,,---,0.00,VWS V14.00,2013-02-28 14:33:00,
2013-02-28 09:38:00,41.1,33.8,29.76,WNW,292,0.0,2.6,75,0.00,,---,0.00,VWS V14.00,2013-02-28 14:38:00,
2013-02-28 09:43:00,41.3,33.3,29.75,NW,315,0.0,0.0,73,0.00,,---,0.00,VWS V14.00,2013-02-28 14:43:00,
2013-02-28 09:48:00,41.5,33.5,29.76,NW,315,0.0,0.0,73,0.00,,---,0.00,VWS V14.00,2013-02-28 14:48:00,
2013-02-28 09:53:00,41.5,33.5,29.76,ENE,68,0.0,0.0,73,0.00,,---,0.00,VWS V14.00,2013-02-28 14:53:00,
2013-02-28 09:58:00,41.3,32.6,29.76,NE,45,4.0,4.0,71,0.00,,---,0.00,VWS V14.00,2013-02-28 14:58:00,
2013-02-28 10:03:00,41.0,32.7,29.76,NE,45,0.0,2.2,72,0.00,,---,0.00,VWS V14.00,2013-02-28 15:03:00,
2013-02-28 10:08:00,41.1,32.8,29.76,NE,45,0.0,2.2,72,0.00,,---,0.00,VWS V14.00,2013-02-28 15:08:00,
2013-02-28 10:13:00,41.5,33.2,29.75,NNW,338,1.1,1.1,72,0.00,,---,0.00,VWS V14.00,2013-02-28 15:13:00,
2013-02-28 10:18:00,41.7,33.3,29.76,NW,315,0.0,1.1,72,0.00,,---,0.00,VWS V14.00,2013-02-28 15:18:00,
2013-02-28 10:23:00,41.9,33.2,29.76,ENE,68,2.4,6.2,71,0.00,,---,0.00,VWS V14.00,2013-02-28 15:23:00,
2013-02-28 10:28:00,42.0,32.9,29.75,NE,45,2.4,6.2,70,0.00,,---,0.00,VWS V14.00,2013-02-28 15:28:00,
2013-02-28 10:33:00,42.0,33.3,29.75,NW,315,0.0,0.0,71,0.00,,---,0.00,VWS V14.00,2013-02-28 15:33:00,
2013-02-28 10:38:00,42.4,33.7,29.75,NW,315,3.5,3.5,71,0.00,,---,0.00,VWS V14.00,2013-02-28 15:38:00,
2013-02-28 10:43:00,42.6,33.9,29.75,WNW,292,2.0,4.0,71,0.00,,---,0.00,VWS V14.00,2013-02-28 15:43:00,
2013-02-28 10:48:00,42.4,33.7,29.75,WNW,292,0.0,6.7,71,0.00,,---,0.00,VWS V14.00,2013-02-28 15:48:00,
2013-02-28 10:53:00,42.0,32.9,29.75,NE,45,0.0,0.0,70,0.00,,---,0.00,VWS V14.00,2013-02-28 15:53:00,
2013-02-28 10:58:00,41.7,32.7,29.75,West,270,5.8,5.8,70,0.00,,---,0.00,VWS V14.00,2013-02-28 15:58:00,
2013-02-28 11:03:00,41.7,32.7,29.75,West,270,2.9,4.4,70,0.00,,---,0.00,VWS V14.00,2013-02-28 16:03:00,
2013-02-28 11:08:00,41.7,32.7,29.76,West,270,0.0,4.4,70,0.00,,---,0.00,VWS V14.00,2013-02-28 16:08:00,
2013-02-28 11:13:00,42.0,33.3,29.76,WNW,292,0.0,6.9,71,0.00,,---,0.00,VWS V14.00,2013-02-28 16:13:00,
2013-02-28 11:18:00,42.6,33.5,29.76,NE,45,0.0,6.9,70,0.00,,---,0.00,VWS V14.00,2013-02-28 16:18:00,
2013-02-28 11:23:00,42.9,33.4,29.76,NW,315,0.0,0.0,69,0.00,,---,0.00,VWS V14.00,2013-02-28 16:23:00,
2013-02-28 11:28:00,43.1,33.3,29.76,North,0,0.0,4.0,68,0.00,,---,0.00,VWS V14.00,2013-02-28 16:28:00,
2013-02-28 11:33:00,43.3,33.8,29.76,West,270,2.0,6.2,69,0.00,,---,0.00,VWS V14.00,2013-02-28 16:33:00,
2013-02-28 11:38:00,43.8,33.9,29.76,NW,315,0.0,6.2,68,0.00,,---,0.00,VWS V14.00,2013-02-28 16:38:00,
2013-02-28 11:43:00,43.8,33.6,29.76,NE,45,0.2,5.1,67,0.00,,---,0.00,VWS V14.00,2013-02-28 16:43:00,
2013-02-28 11:48:00,44.0,34.1,29.76,NE,45,0.0,5.1,68,0.00,,---,0.00,VWS V14.00,2013-02-28 16:48:00,
2013-02-28 11:53:00,44.2,33.6,29.76,NNE,22,0.0,1.5,66,0.00,,---,0.00,VWS V14.00,2013-02-28 16:53:00,
2013-02-28 11:58:00,44.2,34.0,29.76,West,270,3.5,3.5,67,0.00,,---,0.00,VWS V14.00,2013-02-28 16:58:00,
2013-02-28 12:03:00,44.7,34.4,29.76,West,270,1.1,3.8,67,0.00,,---,0.00,VWS V14.00,2013-02-28 17:03:00,
2013-02-28 12:08:00,44.7,34.4,29.76,West,270,1.1,3.8,67,0.00,,---,0.00,VWS V14.00,2013-02-28 17:08:00,
2013-02-28 12:13:00,45.1,34.8,29.76,WSW,248,5.8,5.8,67,0.00,,---,0.00,VWS V14.00,2013-02-28 17:13:00,
2013-02-28 12:18:00,45.1,34.8,29.77,ENE,68,0.0,5.8,67,0.00,,---,0.00,VWS V14.00,2013-02-28 17:18:00,
2013-02-28 12:23:00,44.9,34.2,29.76,ENE,68,0.4,2.0,66,0.00,,---,0.00,VWS V14.00,2013-02-28 17:23:00,
2013-02-28 12:29:00,44.9,34.2,29.77,WNW,292,4.2,4.2,66,0.00,,---,0.00,VWS V14.00,2013-02-28 17:29:00,
2013-02-28 12:34:00,45.1,34.4,29.77,North,0,0.0,5.8,66,0.00,,---,0.00,VWS V14.00,2013-02-28 17:34:00,
2013-02-28 12:39:00,45.1,34.4,29.76,North,0,1.5,5.8,66,0.00,,---,0.00,VWS V14.00,2013-02-28 17:39:00,
2013-02-28 12:44:00,45.1,34.4,29.76,NW,315,2.4,5.1,66,0.00,,---,0.00,VWS V14.00,2013-02-28 17:44:00,
2013-02-28 12:49:00,45.5,34.8,29.77,NE,45,7.1,10.5,66,0.00,,---,0.00,VWS V14.00,2013-02-28 17:49:00,
2013-02-28 12:54:00,44.9,35.0,29.77,ENE,68,1.3,4.6,68,0.00,,---,0.00,VWS V14.00,2013-02-28 17:54:00,
2013-02-28 12:59:00,44.9,35.0,29.77,NE,45,5.3,5.3,68,0.00,,---,0.00,VWS V14.00,2013-02-28 17:59:00,
2013-02-28 13:04:00,46.9,36.9,29.77,West,270,5.1,5.3,68,0.00,,---,0.00,VWS V14.00,2013-02-28 18:04:00,
2013-02-28 13:09:00,47.3,36.5,29.76,NE,45,8.2,8.2,66,0.00,,---,0.00,VWS V14.00,2013-02-28 18:09:00,
2013-02-28 13:14:00,46.5,35.8,29.77,NE,45,0.0,7.8,66,0.00,,---,0.00,VWS V14.00,2013-02-28 18:14:00,
2013-02-28 13:19:00,46.9,36.5,29.76,ENE,68,0.0,7.8,67,0.00,,---,0.00,VWS V14.00,2013-02-28 18:19:00,
2013-02-28 13:24:00,47.3,36.9,29.77,NNW,338,1.1,2.9,67,0.00,,---,0.00,VWS V14.00,2013-02-28 18:24:00,
2013-02-28 13:29:00,47.1,36.3,29.76,North,0,0.0,2.9,66,0.00,,---,0.00,VWS V14.00,2013-02-28 18:29:00,
2013-02-28 13:34:00,47.1,35.6,29.77,ENE,68,6.2,6.2,64,0.00,,---,0.00,VWS V14.00,2013-02-28 18:34:00,
2013-02-28 13:39:00,46.5,36.2,29.76,West,270,2.0,6.2,67,0.00,,---,0.00,VWS V14.00,2013-02-28 18:39:00,
2013-02-28 13:44:00,46.5,35.8,29.77,North,0,0.4,1.7,66,0.00,,---,0.00,VWS V14.00,2013-02-28 18:44:00,
2013-02-28 13:49:00,45.3,34.6,29.76,North,0,2.0,10.0,66,0.00,,---,0.00,VWS V14.00,2013-02-28 18:49:00,
2013-02-28 13:54:00,45.1,34.8,29.76,NW,315,4.4,4.4,67,0.00,,---,0.00,VWS V14.00,2013-02-28 18:54:00,
2013-02-28 13:59:00,45.1,34.8,29.77,WNW,292,2.2,4.4,67,0.00,,---,0.00,VWS V14.00,2013-02-28 18:59:00,
2013-02-28 14:04:00,45.6,35.3,29.76,WNW,292,0.0,2.9,67,0.00,,---,0.00,VWS V14.00,2013-02-28 19:04:00,
2013-02-28 14:09:00,45.6,35.3,29.76,WNW,292,0.6,2.9,67,0.00,,---,0.00,VWS V14.00,2013-02-28 19:09:00,
2013-02-28 14:14:00,46.0,35.7,29.76,West,270,0.0,0.0,67,0.00,,---,0.00,VWS V14.00,2013-02-28 19:14:00,
2013-02-28 14:19:00,45.5,34.4,29.76,North,0,0.0,6.9,65,0.00,,---,0.00,VWS V14.00,2013-02-28 19:19:00,
2013-02-28 14:24:00,44.7,33.7,29.76,West,270,3.5,6.0,65,0.00,,---,0.00,VWS V14.00,2013-02-28 19:24:00,
2013-02-28 14:29:00,43.5,32.5,29.76,NE,45,0.0,12.5,65,0.00,,---,0.00,VWS V14.00,2013-02-28 19:29:00,
2013-02-28 14:34:00,43.1,32.5,29.77,NW,315,2.9,2.9,66,0.00,,---,0.00,VWS V14.00,2013-02-28 19:34:00,
2013-02-28 14:39:00,43.1,32.9,29.77,WNW,292,5.3,5.3,67,0.00,,---,0.00,VWS V14.00,2013-02-28 19:39:00,
2013-02-28 14:44:00,43.1,32.5,29.77,NE,45,1.1,4.4,66,0.00,,---,0.00,VWS V14.00,2013-02-28 19:44:00,
2013-02-28 14:49:00,43.1,32.9,29.77,NNE,22,0.0,4.4,67,0.00,,---,0.00,VWS V14.00,2013-02-28 19:49:00,
2013-02-28 14:54:00,43.5,33.3,29.77,NW,315,0.0,2.2,67,0.00,,---,0.00,VWS V14.00,2013-02-28 19:54:00,
2013-02-28 14:59:00,43.7,33.1,29.77,ENE,68,0.4,2.2,66,0.00,,---,0.00,VWS V14.00,2013-02-28 19:59:00,
2013-02-28 15:04:00,44.0,33.4,29.77,ENE,68,4.2,4.2,66,0.00,,---,0.00,VWS V14.00,2013-02-28 20:04:00,
2013-02-28 15:09:00,44.4,33.8,29.76,ENE,68,0.0,4.2,66,0.00,,---,0.00,VWS V14.00,2013-02-28 20:09:00,
2013-02-28 15:14:00,44.7,33.7,29.76,NE,45,0.0,1.5,65,0.00,,---,0.00,VWS V14.00,2013-02-28 20:14:00,
2013-02-28 15:19:00,44.7,33.7,29.77,WNW,292,0.0,1.5,65,0.00,,---,0.00,VWS V14.00,2013-02-28 20:19:00,
2013-02-28 15:24:00,44.9,33.9,29.77,West,270,5.1,5.1,65,0.00,,---,0.00,VWS V14.00,2013-02-28 20:24:00,
2013-02-28 15:29:00,45.6,34.1,29.76,West,270,2.0,5.1,64,0.00,,---,0.00,VWS V14.00,2013-02-28 20:29:00,
2013-02-28 15:34:00,45.3,33.5,29.77,West,270,0.0,5.3,63,0.00,,---,0.00,VWS V14.00,2013-02-28 20:34:00,
2013-02-28 15:39:00,44.9,33.1,29.77,West,270,1.7,5.3,63,0.00,,---,0.00,VWS V14.00,2013-02-28 20:39:00,
2013-02-28 15:44:00,43.7,31.5,29.77,ENE,68,4.6,4.6,62,0.00,,---,0.00,VWS V14.00,2013-02-28 20:44:00,
2013-02-28 15:49:00,42.9,30.8,29.77,NNE,22,0.8,4.6,62,0.00,,---,0.00,VWS V14.00,2013-02-28 20:49:00,
2013-02-28 15:54:00,42.2,30.1,29.77,NE,45,0.0,1.1,62,0.00,,---,0.00,VWS V14.00,2013-02-28 20:54:00,
2013-02-28 15:59:00,41.3,29.7,29.77,ENE,68,5.1,5.1,63,0.00,,---,0.00,VWS V14.00,2013-02-28 20:59:00,
2013-02-28 16:04:00,41.3,30.1,29.77,NE,45,0.8,5.1,64,0.00,,---,0.00,VWS V14.00,2013-02-28 21:04:00,
2013-02-28 16:09:00,41.7,30.8,29.77,NE,45,2.0,5.1,65,0.00,,---,0.00,VWS V14.00,2013-02-28 21:09:00,
2013-02-28 16:14:00,42.0,31.1,29.78,NE,45,3.3,5.8,65,0.00,,---,0.00,VWS V14.00,2013-02-28 21:14:00,
2013-02-28 16:19:00,42.2,30.9,29.78,NNW,338,1.7,5.8,64,0.00,,---,0.00,VWS V14.00,2013-02-28 21:19:00,
2013-02-28 16:25:00,42.4,31.5,29.79,WSW,248,0.0,0.0,65,0.00,,---,0.00,VWS V14.00,2013-02-28 21:25:00,
2013-02-28 16:30:00,42.0,30.7,29.79,NW,315,0.0,1.3,64,0.00,,---,0.00,VWS V14.00,2013-02-28 21:30:00,
2013-02-28 16:35:00,41.7,30.4,29.78,WSW,248,11.4,11.4,64,0.00,,---,0.00,VWS V14.00,2013-02-28 21:35:00,
2013-02-28 16:40:00,41.3,30.4,29.78,WSW,248,5.8,11.4,65,0.00,,---,0.00,VWS V14.00,2013-02-28 21:40:00,
2013-02-28 16:45:00,40.8,30.0,29.78,WSW,248,5.1,5.1,65,0.00,,---,0.00,VWS V14.00,2013-02-28 21:45:00,
2013-02-28 16:50:00,40.6,29.8,29.79,NE,45,0.0,5.1,65,0.00,,---,0.00,VWS V14.00,2013-02-28 21:50:00,
2013-02-28 16:55:00,40.4,30.0,29.79,WSW,248,4.0,4.0,66,0.00,,---,0.00,VWS V14.00,2013-02-28 21:55:00,
2013-02-28 17:00:00,40.1,30.0,29.79,NNW,338,1.7,6.0,67,0.00,,---,0.00,VWS V14.00,2013-02-28 22:00:00,
2013-02-28 17:05:00,40.2,30.1,29.79,WNW,292,2.2,2.2,67,0.00,,---,0.00,VWS V14.00,2013-02-28 22:05:00,
2013-02-28 17:10:00,40.2,30.1,29.79,North,0,2.6,2.6,67,0.00,,---,0.00,VWS V14.00,2013-02-28 22:10:00,
2013-02-28 17:15:00,39.9,29.9,29.81,WNW,292,2.4,2.4,67,0.00,,---,0.00,VWS V14.00,2013-02-28 22:15:00,
2013-02-28 17:19:00,39.5,29.8,29.81,WNW,292,5.1,5.1,68,0.00,,---,0.00,VWS V14.00,2013-02-28 22:19:00,
2013-02-28 17:25:00,39.3,29.3,29.81,NE,45,1.5,4.2,67,0.00,,---,0.00,VWS V14.00,2013-02-28 22:25:00,
2013-02-28 17:30:00,39.0,29.4,29.82,NE,45,0.0,4.2,68,0.00,,---,0.00,VWS V14.00,2013-02-28 22:30:00,
2013-02-28 17:35:00,38.8,29.2,29.82,NE,45,2.9,2.9,68,0.00,,---,0.00,VWS V14.00,2013-02-28 22:35:00,
2013-02-28 17:40:00,38.4,28.8,29.81,NE,45,0.4,2.9,68,0.00,,---,0.00,VWS V14.00,2013-02-28 22:40:00,
2013-02-28 17:45:00,37.9,28.6,29.82,ENE,68,2.6,3.5,69,0.00,,---,0.00,VWS V14.00,2013-02-28 22:45:00,
2013-02-28 17:50:00,37.7,28.8,29.82,NE,45,2.2,3.5,70,0.00,,---,0.00,VWS V14.00,2013-02-28 22:50:00,
2013-02-28 17:55:00,37.2,28.3,29.82,NE,45,4.9,4.9,70,0.00,,---,0.00,VWS V14.00,2013-02-28 22:55:00,
2013-02-28 18:00:00,36.8,28.0,29.82,ENE,68,0.6,4.9,70,0.00,,---,0.00,VWS V14.00,2013-02-28 23:00:00,
2013-02-28 18:05:00,36.3,27.8,29.83,ENE,68,0.0,2.6,71,0.00,,---,0.00,VWS V14.00,2013-02-28 23:05:00,
2013-02-28 18:10:00,36.1,27.6,29.83,NE,45,0.0,5.3,71,0.00,,---,0.00,VWS V14.00,2013-02-28 23:10:00,
2013-02-28 18:15:00,35.7,27.2,29.83,North,0,0.0,0.0,71,0.00,,---,0.00,VWS V14.00,2013-02-28 23:15:00,
2013-02-28 18:20:00,35.4,27.3,29.83,North,0,0.0,0.0,72,0.00,,---,0.00,VWS V14.00,2013-02-28 23:20:00,
2013-02-28 18:25:00,35.2,27.1,29.83,West,270,2.6,2.6,72,0.00,,---,0.00,VWS V14.00,2013-02-28 23:25:00,
2013-02-28 18:30:00,34.7,27.0,29.84,NW,315,0.6,2.6,73,0.00,,---,0.00,VWS V14.00,2013-02-28 23:30:00,
2013-02-28 18:35:00,34.5,26.8,29.84,NW,315,0.0,0.6,73,0.00,,---,0.00,VWS V14.00,2013-02-28 23:35:00,
2013-02-28 18:40:00,34.3,26.6,29.85,West,270,0.0,1.7,73,0.00,,---,0.00,VWS V14.00,2013-02-28 23:40:00,
2013-02-28 18:45:00,34.3,26.9,29.85,WNW,292,0.0,0.0,74,0.00,,---,0.00,VWS V14.00,2013-02-28 23:45:00,
2013-02-28 18:50:00,34.3,26.9,29.85,WNW,292,2.9,3.1,74,0.00,,---,0.00,VWS V14.00,2013-02-28 23:50:00,
2013-02-28 18:55:00,34.3,26.9,29.85,WNW,292,1.3,4.4,74,0.00,,---,0.00,VWS V14.00,2013-02-28 23:55:00,
2013-02-28 19:00:00,34.3,26.9,29.85,WNW,292,5.8,5.8,74,0.00,,---,0.00,VWS V14.00,2013-03-01 00:00:00,
2013-02-28 19:05:00,34.3,26.9,29.85,West,270,0.8,5.8,74,0.00,,---,0.00,VWS V14.00,2013-03-01 00:05:00,
2013-02-28 19:10:00,34.3,26.9,29.85,NE,45,0.0,5.8,74,0.00,,---,0.00,VWS V14.00,2013-03-01 00:10:00,
2013-02-28 19:15:00,34.3,26.9,29.86,NE,45,3.3,3.3,74,0.00,,---,0.00,VWS V14.00,2013-03-01 00:15:00,
2013-02-28 19:20:00,34.3,26.9,29.86,ENE,68,2.2,3.3,74,0.00,,---,0.00,VWS V14.00,2013-03-01 00:20:00,
2013-02-28 19:25:00,34.1,26.7,29.85,NE,45,1.3,1.3,74,0.00,,---,0.00,VWS V14.00,2013-03-01 00:25:00,
2013-02-28 19:30:00,34.1,26.7,29.85,NE,45,0.0,1.3,74,0.00,,---,0.00,VWS V14.00,2013-03-01 00:30:00,
2013-02-28 19:35:00,33.9,26.8,29.85,NE,45,6.7,6.7,75,0.00,,---,0.00,VWS V14.00,2013-03-01 00:35:00,
2013-02-28 19:40:00,33.9,26.8,29.85,ENE,68,0.0,8.5,75,0.00,,---,0.00,VWS V14.00,2013-03-01 00:40:00,
2013-02-28 19:45:00,33.9,26.8,29.85,ENE,68,1.1,5.8,75,0.00,,---,0.00,VWS V14.00,2013-03-01 00:45:00,
2013-02-28 19:50:00,33.8,26.7,29.85,SE,135,0.0,5.8,75,0.00,,---,0.00,VWS V14.00,2013-03-01 00:50:00,
2013-02-28 19:55:00,33.6,26.5,29.85,SE,135,0.0,1.5,75,0.00,,---,0.00,VWS V14.00,2013-03-01 00:55:00,
2013-02-28 20:00:00,33.6,26.5,29.85,ESE,112,1.5,2.9,75,0.00,,---,0.22,VWS V14.00,2013-03-01 01:00:00,
2013-02-28 20:05:00,33.6,26.5,29.85,SW,225,0.0,3.5,75,0.00,,---,0.00,VWS V14.00,2013-03-01 01:05:00,
2013-02-28 20:10:00,33.6,26.5,29.85,NE,45,0.0,0.0,75,0.00,,---,0.00,VWS V14.00,2013-03-01 01:10:00,
2013-02-28 20:15:00,33.6,26.5,29.85,NE,45,0.0,0.4,75,0.00,,---,0.00,VWS V14.00,2013-03-01 01:15:00,
2013-02-28 20:20:00,33.6,26.5,29.85,NW,315,0.0,3.3,75,0.00,,---,0.00,VWS V14.00,2013-03-01 01:20:00,
2013-02-28 20:25:00,33.6,26.5,29.85,NW,315,0.0,2.9,75,0.00,,---,0.00,VWS V14.00,2013-03-01 01:25:00,
2013-02-28 20:30:00,33.6,26.5,29.85,NW,315,0.0,0.0,75,0.00,,---,0.00,VWS V14.00,2013-03-01 01:30:00,
2013-02-28 20:35:00,33.6,26.5,29.85,NW,315,0.6,2.6,75,0.00,,---,0.00,VWS V14.00,2013-03-01 01:35:00,
2013-02-28 20:40:00,33.6,26.5,29.85,WNW,292,0.0,0.0,75,0.00,,---,0.00,VWS V14.00,2013-03-01 01:40:00,
2013-02-28 20:45:00,33.6,26.5,29.84,WNW,292,0.0,0.0,75,0.00,,---,0.22,VWS V14.00,2013-03-01 01:45:00,
2013-02-28 20:50:00,33.6,26.5,29.84,WNW,292,0.0,0.0,75,0.00,,---,0.00,VWS V14.00,2013-03-01 01:50:00,
2013-02-28 20:55:00,33.6,26.9,29.84,WNW,292,1.1,1.1,76,0.00,,---,0.00,VWS V14.00,2013-03-01 01:55:00,
2013-02-28 21:00:00,33.6,26.9,29.85,WNW,292,0.0,0.0,76,0.00,,---,0.00,VWS V14.00,2013-03-01 02:00:00,
2013-02-28 21:05:00,33.6,26.9,29.85,WNW,292,0.0,0.0,76,0.00,,---,0.00,VWS V14.00,2013-03-01 02:05:00,
2013-02-28 21:10:00,33.6,26.9,29.85,WNW,292,1.1,1.1,76,0.00,,---,0.00,VWS V14.00,2013-03-01 02:10:00,
2013-02-28 21:15:00,33.6,26.9,29.85,WNW,292,0.0,1.1,76,0.00,,---,0.00,VWS V14.00,2013-03-01 02:15:00,
2013-02-28 21:20:00,33.6,26.9,29.85,WNW,292,0.0,0.0,76,0.00,,---,0.00,VWS V14.00,2013-03-01 02:20:00,
2013-02-28 21:25:00,33.6,26.9,29.84,WNW,292,0.6,0.6,76,0.00,,---,0.00,VWS V14.00,2013-03-01 02:25:00,
2013-02-28 21:30:00,33.6,26.9,29.85,WNW,292,0.0,0.0,76,0.00,,---,0.00,VWS V14.00,2013-03-01 02:30:00,
2013-02-28 21:35:00,33.6,26.9,29.84,WNW,292,0.0,0.0,76,0.00,,---,0.00,VWS V14.00,2013-03-01 02:35:00,
2013-02-28 21:40:00,33.6,26.9,29.84,NW,315,0.0,0.0,76,0.00,,---,0.00,VWS V14.00,2013-03-01 02:40:00,
2013-02-28 21:46:00,33.6,26.9,29.85,NW,315,0.0,0.0,76,0.00,,---,0.00,VWS V14.00,2013-03-01 02:46:00,
2013-02-28 21:51:00,33.6,27.2,29.85,ENE,68,0.0,0.0,77,0.00,,---,0.00,VWS V14.00,2013-03-01 02:51:00,
2013-02-28 21:56:00,33.4,27.0,29.84,ENE,68,0.0,0.0,77,0.00,,---,0.00,VWS V14.00,2013-03-01 02:56:00,
2013-02-28 22:01:00,33.4,27.0,29.85,NE,45,0.0,0.0,77,0.00,,---,0.00,VWS V14.00,2013-03-01 03:01:00,
2013-02-28 22:06:00,33.4,27.0,29.85,NNW,338,0.0,1.5,77,0.00,,---,0.00,VWS V14.00,2013-03-01 03:06:00,
2013-02-28 22:11:00,33.2,26.8,29.85,NNW,338,0.0,0.0,77,0.00,,---,0.00,VWS V14.00,2013-03-01 03:11:00,
2013-02-28 22:16:00,33.2,26.8,29.85,NNW,338,0.0,0.6,77,0.00,,---,0.00,VWS V14.00,2013-03-01 03:16:00,
2013-02-28 22:21:00,33.2,27.1,29.85,NNW,338,0.0,0.0,78,0.00,,---,0.00,VWS V14.00,2013-03-01 03:21:00,
2013-02-28 22:26:00,33.0,26.9,29.85,NNW,338,1.1,1.1,78,0.00,,---,0.00,VWS V14.00,2013-03-01 03:26:00,
2013-02-28 22:31:00,33.2,27.1,29.85,NNW,338,0.8,0.8,78,0.00,,---,0.00,VWS V14.00,2013-03-01 03:31:00,
2013-02-28 22:36:00,33.0,26.9,29.85,NNW,338,0.0,1.1,78,0.00,,---,0.00,VWS V14.00,2013-03-01 03:36:00,
2013-02-28 22:41:00,33.0,26.9,29.85,NNW,338,0.0,0.0,78,0.00,,---,0.00,VWS V14.00,2013-03-01 03:41:00,
2013-02-28 22:46:00,33.0,26.9,29.85,NE,45,0.0,0.0,78,0.00,,---,0.00,VWS V14.00,2013-03-01 03:46:00,
2013-02-28 22:51:00,32.9,27.1,29.85,NE,45,0.4,0.4,79,0.00,,---,0.00,VWS V14.00,2013-03-01 03:51:00,
2013-02-28 22:56:00,32.7,26.9,29.85,NNE,22,2.4,2.4,79,0.00,,---,0.00,VWS V14.00,2013-03-01 03:56:00,
2013-02-28 23:01:00,32.7,26.9,29.85,NE,45,0.0,0.0,79,0.00,,---,0.00,VWS V14.00,2013-03-01 04:01:00,
2013-02-28 23:06:00,32.7,27.2,29.84,NE,45,1.1,1.1,80,0.00,,---,0.00,VWS V14.00,2013-03-01 04:06:00,
2013-02-28 23:11:00,32.7,27.2,29.84,NW,315,0.4,1.7,80,0.00,,---,0.00,VWS V14.00,2013-03-01 04:11:00,
2013-02-28 23:16:00,32.7,27.2,29.84,NW,315,3.1,3.3,80,0.00,,---,0.00,VWS V14.00,2013-03-01 04:16:00,
2013-02-28 23:21:00,32.5,27.0,29.84,NE,45,0.0,0.0,80,0.00,,---,0.00,VWS V14.00,2013-03-01 04:21:00,
2013-02-28 23:26:00,32.5,27.0,29.85,NE,45,0.0,2.2,80,0.00,,---,0.00,VWS V14.00,2013-03-01 04:26:00,
2013-02-28 23:31:00,32.3,27.1,29.85,North,0,0.0,0.0,81,0.00,,---,0.00,VWS V14.00,2013-03-01 04:31:00,
2013-02-28 23:36:00,32.3,27.1,29.85,West,270,0.4,4.2,81,0.00,,---,0.00,VWS V14.00,2013-03-01 04:36:00,
2013-02-28 23:41:00,32.3,27.1,29.85,West,270,0.0,0.0,81,0.00,,---,0.00,VWS V14.00,2013-03-01 04:41:00,
2013-02-28 23:46:00,32.3,27.1,29.85,West,270,0.8,0.8,81,0.00,,---,0.00,VWS V14.00,2013-03-01 04:46:00,
2013-02-28 23:51:00,32.1,26.9,29.85,West,270,0.0,0.0,81,0.00,,---,0.00,VWS V14.00,2013-03-01 04:51:00,
2013-02-28 23:56:00,32.1,26.9,29.85,West,270,0.0,1.7,81,0.00,,---,0.00,VWS V14.00,2013-03-01 04:56:00,